UGKO/KIU METAR and TAF weather

Enter ICAO airport designator
Station Type Date Time Source
UGKO METAR 2020/01/28 11:30 UTC NOAA

UGKO 281130Z 09017KT 9999 SCT035 BKN048 14/M03 Q1014 NOSIG


Station Type Date Time Source
UGKO Decoded METAR 2020/01/28 11:30 UTC NOAA

Station name not available
Jan 28, 2020 - 06:30 AM EST / 2020.01.28 1130 UTC
Wind: from the E (090 degrees) at 20 MPH (17 KT):0
Visibility: greater than 7 mile(s):0
Sky conditions: mostly cloudy
Temperature: 57 F (14 C)
Dew Point: 26 F (-3 C)
Relative Humidity: 30%
Pressure (altimeter): 29.94 in. Hg (1014 hPa)
ob: UGKO 281130Z 09017KT 9999 SCT035 BKN048 14/M03 Q1014 NOSIG
cycle: 11

Station Type Date Time Source
UGKO TAF 2020/01/28 12:05 UTC NOAA

TAF UGKO 281100Z 2812/2912 08014KT 9999 SCT033 OVC049 TX13/2812Z TN07/2904Z
TEMPO 2812/2814 08024G35KT
BECMG 2821/2824 08004KT

Example: see airport list